Time;durP1;ratioP1;P1;durP2;ratioP2;P2;SDS_P1;SDS_P2;PMS_P1;PMS_P2;Temp;Humidity;BMP_temperature;BMP_pressure;BME280_temperature;BME280_humidity;BME280_pressure;Samples;Min_cycle;Max_cycle;Signal;HPM_P1;HPM_P2
2023/04/21 00:02:25;;;;;;;2.00;0.93;;;7.90;99.90;;;;;;4991055;28;20207;-95
2023/04/21 00:04:57;;;;;;;2.57;0.80;;;7.90;99.90;;;;;;4988618;28;20206;-95
2023/04/21 00:07:29;;;;;;;2.57;1.10;;;7.90;99.90;;;;;;4984151;28;20210;-96
2023/04/21 00:10:00;;;;;;;3.57;1.10;;;7.90;99.90;;;;;;4997567;28;20214;-96
2023/04/21 00:12:31;;;;;;;2.33;1.10;;;8.00;99.90;;;;;;4997509;28;20198;-95
2023/04/21 00:15:02;;;;;;;1.40;1.03;;;8.00;99.90;;;;;;4997812;28;20714;-96
2023/04/21 00:17:36;;;;;;;0.87;0.80;;;8.10;99.90;;;;;;4995875;28;20218;-96
2023/04/21 00:20:09;;;;;;;4.50;1.00;;;8.10;99.90;;;;;;4994484;28;20229;-96
2023/04/21 00:22:40;;;;;;;1.83;0.90;;;8.20;99.90;;;;;;4981440;28;20215;-96
2023/04/21 00:25:11;;;;;;;3.83;1.30;;;8.10;99.90;;;;;;4977651;28;20207;-96
2023/04/21 00:27:52;;;;;;;10.80;1.80;;;8.00;99.90;;;;;;4980683;28;20214;-94
2023/04/21 00:30:23;;;;;;;2.70;1.00;;;8.10;99.90;;;;;;4981720;28;20262;-94
2023/04/21 00:32:57;;;;;;;2.10;1.00;;;8.10;99.90;;;;;;4997934;28;20245;-94
2023/04/21 00:35:29;;;;;;;3.63;0.90;;;8.10;99.90;;;;;;4983077;28;20207;-95
2023/04/21 00:38:01;;;;;;;1.53;1.00;;;8.10;99.90;;;;;;4987757;28;20211;-96
2023/04/21 00:40:32;;;;;;;4.43;1.00;;;8.00;99.90;;;;;;4983390;28;20215;-96
2023/04/21 00:43:07;;;;;;;3.73;1.00;;;7.90;99.90;;;;;;4981372;28;20211;-96
2023/04/21 00:45:38;;;;;;;1.33;0.80;;;7.80;99.90;;;;;;4995168;28;20213;-93
2023/04/21 00:48:12;;;;;;;1.83;1.03;;;7.80;99.90;;;;;;4993088;28;20206;-93
2023/04/21 00:50:44;;;;;;;2.00;1.23;;;7.70;99.90;;;;;;4996764;28;20202;-92
2023/04/21 00:53:16;;;;;;;2.20;1.10;;;7.50;99.90;;;;;;5004768;28;20230;-89
2023/04/21 00:55:48;;;;;;;3.67;1.17;;;7.40;99.90;;;;;;5014825;28;20254;-92
2023/04/21 00:58:20;;;;;;;3.40;1.33;;;7.30;99.90;;;;;;5010301;28;20347;-93
2023/04/21 01:00:51;;;;;;;1.80;1.50;;;7.20;99.90;;;;;;4983844;28;20565;-94
2023/04/21 01:03:24;;;;;;;1.53;1.43;;;7.30;99.90;;;;;;5000496;28;20659;-94
2023/04/21 01:05:57;;;;;;;1.03;1.00;;;7.40;99.90;;;;;;4988972;28;20257;-92
2023/04/21 01:08:28;;;;;;;1.70;1.20;;;7.40;99.90;;;;;;4996403;28;20206;-94
2023/04/21 01:11:00;;;;;;;2.47;1.20;;;7.40;99.90;;;;;;4992723;28;20553;-94
2023/04/21 01:13:32;;;;;;;1.80;1.10;;;7.40;99.90;;;;;;4996673;28;20210;-93
2023/04/21 01:16:03;;;;;;;2.70;1.00;;;7.30;99.90;;;;;;4998088;28;20210;-95
2023/04/21 01:18:37;;;;;;;2.63;1.40;;;7.30;99.90;;;;;;4991945;28;20207;-94
2023/04/21 01:21:09;;;;;;;1.33;1.10;;;7.30;99.90;;;;;;4978977;28;20211;-91
2023/04/21 01:23:42;;;;;;;2.93;1.73;;;7.40;99.90;;;;;;4990577;28;20238;-93
2023/04/21 01:26:14;;;;;;;1.13;1.00;;;7.40;99.90;;;;;;5006365;28;20210;-93
2023/04/21 01:28:46;;;;;;;1.77;1.27;;;7.40;99.90;;;;;;4988130;28;20564;-94
2023/04/21 01:31:19;;;;;;;3.63;1.10;;;7.40;99.90;;;;;;4994738;28;20222;-94
2023/04/21 01:33:51;;;;;;;2.17;1.07;;;7.30;99.90;;;;;;4991749;28;20202;-93
2023/04/21 01:36:23;;;;;;;1.20;1.00;;;7.30;99.90;;;;;;4991197;28;20288;-93
2023/04/21 01:38:57;;;;;;;2.43;1.00;;;7.40;99.90;;;;;;4993525;28;20214;-93
2023/04/21 01:41:28;;;;;;;2.50;0.90;;;7.30;99.90;;;;;;4994654;28;20209;-93
2023/04/21 01:43:59;;;;;;;2.50;1.00;;;7.30;99.90;;;;;;4994289;28;20285;-90
2023/04/21 01:46:31;;;;;;;1.57;0.90;;;7.20;99.90;;;;;;4994762;28;20198;-91
2023/04/21 01:49:02;;;;;;;2.23;1.20;;;7.20;99.90;;;;;;4991433;28;20298;-91
2023/04/21 01:51:33;;;;;;;2.77;1.33;;;7.20;99.90;;;;;;4988603;28;20233;-92
2023/04/21 01:54:07;;;;;;;1.20;0.80;;;7.20;99.90;;;;;;4990137;28;20203;-92
2023/04/21 01:56:39;;;;;;;1.20;1.00;;;7.00;99.90;;;;;;4984635;28;20210;-90
2023/04/21 01:59:10;;;;;;;1.40;0.90;;;7.10;99.90;;;;;;4983479;28;20289;-91
2023/04/21 02:01:42;;;;;;;4.00;1.30;;;7.10;99.90;;;;;;4984349;28;20261;-92
2023/04/21 02:04:13;;;;;;;0.70;0.70;;;7.10;99.90;;;;;;4987686;28;20242;-92
2023/04/21 02:06:44;;;;;;;2.07;1.17;;;7.20;99.90;;;;;;4993433;28;20234;-92
2023/04/21 02:09:18;;;;;;;1.03;0.80;;;7.20;99.90;;;;;;4981756;28;20522;-88
2023/04/21 02:11:50;;;;;;;2.63;1.13;;;7.20;99.90;;;;;;4996655;28;20727;-96
2023/04/21 02:14:22;;;;;;;1.57;1.20;;;7.30;99.90;;;;;;4994267;28;20214;-96
2023/04/21 02:16:54;;;;;;;1.73;1.20;;;7.30;99.90;;;;;;5000134;28;20218;-96
2023/04/21 02:19:27;;;;;;;1.13;0.93;;;7.30;99.90;;;;;;4997407;28;20265;-96
2023/04/21 02:21:59;;;;;;;1.33;0.83;;;7.30;99.90;;;;;;5003334;28;20215;-96
2023/04/21 02:24:34;;;;;;;1.17;1.07;;;7.30;99.90;;;;;;5007854;28;20235;-96
2023/04/21 02:27:06;;;;;;;1.87;1.40;;;7.30;99.90;;;;;;4992035;28;20211;-89
2023/04/21 02:29:39;;;;;;;1.17;1.07;;;7.20;99.90;;;;;;4991762;28;20214;-96
2023/04/21 02:32:11;;;;;;;2.67;1.13;;;7.20;99.90;;;;;;4989518;28;20214;-96
2023/04/21 02:34:55;;;;;;;1.43;1.20;;;7.20;99.90;;;;;;5006046;28;20206;-96
2023/04/21 02:37:28;;;;;;;1.57;1.20;;;7.20;99.90;;;;;;5010437;28;20245;-96
2023/04/21 02:40:02;;;;;;;1.33;1.17;;;7.10;99.90;;;;;;5016185;28;20218;-96
2023/04/21 02:42:35;;;;;;;1.30;1.10;;;7.10;99.90;;;;;;5014288;28;20199;-96
2023/04/21 02:45:09;;;;;;;1.87;1.23;;;7.10;99.90;;;;;;5008117;28;20252;-96
2023/04/21 02:47:43;;;;;;;2.80;1.30;;;7.10;99.90;;;;;;5011910;28;20237;-94
2023/04/21 02:50:16;;;;;;;2.37;1.40;;;7.10;99.90;;;;;;5008545;28;20202;-96
2023/04/21 02:53:01;;;;;;;2.63;1.63;;;7.10;99.90;;;;;;4995544;28;20301;-96
2023/04/21 02:55:36;;;;;;;1.40;1.10;;;7.10;99.90;;;;;;4997325;28;20229;-96
2023/04/21 02:58:09;;;;;;;2.30;1.60;;;7.00;99.90;;;;;;5000084;28;20248;-96
2023/04/21 03:00:41;;;;;;;3.67;1.60;;;6.90;99.90;;;;;;5012375;28;20205;-96
2023/04/21 03:03:14;;;;;;;3.03;1.30;;;6.90;99.90;;;;;;5011197;28;20217;-96
2023/04/21 03:05:46;;;;;;;1.43;1.10;;;6.80;99.90;;;;;;5000627;28;20234;-96
2023/04/21 03:08:18;;;;;;;1.70;0.80;;;6.80;99.90;;;;;;4996982;28;20214;-96
2023/04/21 03:10:53;;;;;;;1.53;1.17;;;6.80;99.90;;;;;;4984520;28;20215;-96
2023/04/21 03:13:27;;;;;;;3.13;1.13;;;6.80;99.90;;;;;;4984837;28;20222;-96
2023/04/21 03:15:59;;;;;;;1.53;1.27;;;6.70;99.90;;;;;;4980338;28;20290;-96
2023/04/21 03:18:35;;;;;;;1.97;1.10;;;6.70;99.90;;;;;;4990346;28;20206;-96
2023/04/21 03:21:08;;;;;;;1.23;1.13;;;6.70;99.90;;;;;;4998381;28;20212;-96
2023/04/21 03:23:40;;;;;;;1.27;1.10;;;6.80;99.90;;;;;;4990426;28;20198;-96
2023/04/21 03:26:15;;;;;;;0.70;0.70;;;6.70;99.90;;;;;;5004174;28;20316;-95
2023/04/21 03:28:48;;;;;;;1.10;1.00;;;6.70;99.90;;;;;;4995942;28;20278;-95
2023/04/21 03:31:19;;;;;;;1.50;1.20;;;6.80;99.90;;;;;;4995207;28;20245;-95
2023/04/21 03:33:51;;;;;;;2.60;1.40;;;6.70;99.90;;;;;;4994743;28;20217;-96
2023/04/21 03:36:24;;;;;;;1.20;1.10;;;6.70;99.90;;;;;;5004215;28;20191;-96
2023/04/21 03:38:57;;;;;;;0.73;0.73;;;6.60;99.90;;;;;;5012757;28;20225;-96
2023/04/21 03:41:50;;;;;;;1.57;1.10;;;6.60;99.90;;;;;;5012668;28;20209;-96
2023/04/21 03:44:23;;;;;;;2.70;1.47;;;6.40;99.90;;;;;;5006077;28;20237;-95
2023/04/21 03:46:56;;;;;;;1.00;0.90;;;6.40;99.90;;;;;;4999383;28;20198;-96
2023/04/21 03:49:28;;;;;;;1.83;1.30;;;6.40;99.90;;;;;;5001782;28;20211;-96
2023/04/21 03:52:00;;;;;;;2.40;1.03;;;6.50;99.90;;;;;;5005804;28;20713;-95
2023/04/21 03:54:31;;;;;;;2.07;1.07;;;6.50;99.90;;;;;;5000462;28;20215;-95
2023/04/21 03:57:06;;;;;;;2.17;1.00;;;6.50;99.90;;;;;;4995867;28;20203;-94
2023/04/21 03:59:38;;;;;;;0.83;0.80;;;6.50;99.90;;;;;;4990735;28;20232;-93
2023/04/21 04:02:10;;;;;;;1.10;0.70;;;6.50;99.90;;;;;;4981291;28;20211;-94
2023/04/21 04:04:42;;;;;;;1.13;0.80;;;6.60;99.90;;;;;;4982224;28;20277;-94
2023/04/21 04:07:13;;;;;;;1.77;0.80;;;6.60;99.90;;;;;;4989128;28;20262;-94
2023/04/21 04:09:45;;;;;;;1.13;0.93;;;6.60;99.90;;;;;;4997214;28;20214;-94
2023/04/21 04:12:19;;;;;;;2.30;1.03;;;6.60;99.90;;;;;;4997657;28;20257;-94
2023/04/21 04:14:51;;;;;;;2.47;1.20;;;6.60;99.90;;;;;;4991610;28;20276;-95
2023/04/21 04:17:23;;;;;;;4.40;1.53;;;6.60;99.90;;;;;;4997458;28;20206;-94
2023/04/21 04:19:54;;;;;;;1.40;1.10;;;6.70;99.90;;;;;;4997218;28;20214;-94
2023/04/21 04:22:26;;;;;;;2.20;1.30;;;6.70;99.90;;;;;;4993376;28;20217;-94
2023/04/21 04:24:58;;;;;;;1.40;1.30;;;6.70;99.90;;;;;;4992399;28;20657;-94
2023/04/21 04:27:33;;;;;;;1.60;1.50;;;6.60;99.90;;;;;;4979448;28;20219;-96
2023/04/21 04:30:04;;;;;;;2.00;1.70;;;6.60;99.90;;;;;;5002344;28;20269;-95
2023/04/21 04:32:38;;;;;;;2.40;2.20;;;6.60;99.90;;;;;;5007406;28;20274;-96
2023/04/21 04:35:11;;;;;;;2.30;1.60;;;6.60;99.90;;;;;;4998644;28;20801;-96
2023/04/21 04:37:44;;;;;;;2.87;1.70;;;6.70;99.90;;;;;;5003341;28;20317;-95
2023/04/21 04:40:16;;;;;;;3.50;2.00;;;6.60;99.90;;;;;;4988906;28;20289;-96
2023/04/21 04:42:50;;;;;;;1.80;1.70;;;6.60;99.90;;;;;;4991428;28;20258;-95
2023/04/21 04:45:22;;;;;;;6.37;1.53;;;6.60;99.90;;;;;;4988165;28;20240;-96
2023/04/21 04:47:54;;;;;;;2.23;1.40;;;6.60;99.90;;;;;;4991282;28;20209;-96
2023/04/21 04:50:26;;;;;;;2.70;1.60;;;6.60;99.90;;;;;;4980165;28;20209;-95
2023/04/21 04:53:02;;;;;;;2.40;1.53;;;6.50;99.90;;;;;;4978173;28;20211;-95
2023/04/21 04:55:35;;;;;;;2.93;1.40;;;6.60;99.90;;;;;;4986648;28;20261;-95
2023/04/21 04:58:11;;;;;;;1.40;1.23;;;6.60;99.90;;;;;;4992287;28;20281;-95
2023/04/21 05:00:43;;;;;;;1.83;1.70;;;6.60;99.90;;;;;;4980386;28;20215;-96
2023/04/21 05:03:16;;;;;;;2.00;1.80;;;6.50;99.90;;;;;;4985537;28;20455;-92
2023/04/21 05:05:48;;;;;;;2.53;1.83;;;6.50;99.90;;;;;;5018250;28;20226;-95
2023/04/21 05:08:20;;;;;;;2.37;1.90;;;6.40;99.90;;;;;;5015364;28;20226;-95
2023/04/21 05:10:52;;;;;;;2.97;2.00;;;6.30;99.90;;;;;;5004932;28;20206;-94
2023/04/21 05:13:26;;;;;;;2.63;1.70;;;6.40;99.90;;;;;;5012763;28;20210;-95
2023/04/21 05:16:01;;;;;;;1.87;1.40;;;6.40;99.90;;;;;;4993041;28;20240;-95
2023/04/21 05:18:33;;;;;;;1.20;1.10;;;6.40;99.90;;;;;;4995594;28;20221;-95
2023/04/21 05:21:05;;;;;;;1.13;1.00;;;6.40;99.90;;;;;;4996119;28;20293;-95
2023/04/21 05:23:37;;;;;;;1.73;0.93;;;6.40;99.90;;;;;;4996603;28;20206;-95
2023/04/21 05:26:09;;;;;;;1.53;1.00;;;6.40;99.90;;;;;;4975983;28;20644;-92
2023/04/21 05:28:43;;;;;;;2.40;1.20;;;6.30;99.90;;;;;;4979030;28;20206;-94
2023/04/21 05:31:15;;;;;;;1.47;1.00;;;6.30;99.90;;;;;;4996062;28;20218;-96
2023/04/21 05:33:47;;;;;;;1.10;1.00;;;6.30;99.90;;;;;;4986231;28;20213;-95
2023/04/21 05:36:20;;;;;;;1.47;1.10;;;6.30;99.90;;;;;;4978148;28;20235;-96
2023/04/21 05:38:53;;;;;;;1.30;1.10;;;6.30;99.90;;;;;;4988073;28;20227;-96
2023/04/21 05:41:26;;;;;;;1.77;1.07;;;6.40;99.90;;;;;;5008712;28;20225;-95
2023/04/21 05:44:02;;;;;;;1.07;0.97;;;6.40;99.90;;;;;;5014949;28;20229;-96
2023/04/21 05:46:35;;;;;;;1.47;1.10;;;6.40;99.90;;;;;;5015738;28;20281;-96
2023/04/21 05:49:08;;;;;;;1.17;1.07;;;6.40;99.90;;;;;;5014501;28;20256;-96
2023/04/21 05:51:40;;;;;;;1.27;1.17;;;6.40;99.90;;;;;;5008336;28;20229;-96
2023/04/21 05:54:11;;;;;;;1.23;1.13;;;6.40;99.90;;;;;;5013181;28;20233;-96
2023/04/21 05:56:46;;;;;;;1.57;1.40;;;6.40;99.90;;;;;;5015184;28;20182;-96
2023/04/21 05:59:20;;;;;;;2.87;1.30;;;6.40;99.90;;;;;;5015965;28;20205;-96
2023/04/21 06:01:52;;;;;;;1.57;1.30;;;6.40;99.90;;;;;;5017404;28;20218;-96
2023/04/21 06:06:59;;;;;;;2.87;1.40;;;6.40;99.90;;;;;;5677506;23;20255;-95
2023/04/21 06:09:31;;;;;;;1.87;1.53;;;6.30;99.90;;;;;;5000445;28;20654;-96
2023/04/21 06:12:03;;;;;;;2.80;1.70;;;6.30;99.90;;;;;;5015562;28;20297;-96
2023/04/21 06:14:36;;;;;;;3.20;1.30;;;6.40;99.90;;;;;;5038600;28;20198;-96
2023/04/21 06:17:09;;;;;;;2.63;1.33;;;6.40;99.90;;;;;;5033780;28;20316;-95
2023/04/21 06:19:41;;;;;;;4.23;1.30;;;6.30;99.90;;;;;;5034287;28;20200;-95
2023/04/21 06:22:12;;;;;;;2.77;1.30;;;6.30;99.90;;;;;;5032233;28;20185;-96
2023/04/21 06:24:45;;;;;;;5.30;1.43;;;6.30;99.90;;;;;;5038969;28;20239;-95
2023/04/21 06:27:17;;;;;;;4.57;1.70;;;6.30;99.90;;;;;;5046232;28;20269;-96
2023/04/21 06:29:56;;;;;;;10.37;2.23;;;6.30;99.90;;;;;;5016778;28;20202;-96
2023/04/21 06:32:28;;;;;;;8.53;2.03;;;6.30;99.90;;;;;;5029149;28;20212;-96
2023/04/21 06:35:00;;;;;;;5.40;1.70;;;6.30;99.90;;;;;;5019765;28;20250;-94
2023/04/21 06:37:32;;;;;;;12.80;2.40;;;6.30;99.90;;;;;;5011956;28;20272;-96
2023/04/21 06:40:04;;;;;;;10.53;2.40;;;6.30;99.90;;;;;;5009110;28;20237;-96
2023/04/21 06:42:36;;;;;;;10.63;2.00;;;6.30;99.90;;;;;;5014943;28;20210;-96
2023/04/21 06:45:17;;;;;;;8.13;1.93;;;6.30;99.90;;;;;;5013961;28;20309;-96
2023/04/21 06:47:48;;;;;;;14.10;2.60;;;6.30;99.90;;;;;;5044291;28;20236;-96
2023/04/21 06:50:21;;;;;;;13.13;2.27;;;6.20;99.90;;;;;;5027553;28;20237;-96
2023/04/21 06:52:53;;;;;;;10.53;2.63;;;6.20;99.90;;;;;;5028341;28;20206;-96
2023/04/21 06:55:25;;;;;;;13.63;2.13;;;6.30;99.90;;;;;;5030868;28;20218;-96
2023/04/21 06:57:57;;;;;;;14.07;2.10;;;6.30;99.90;;;;;;5025841;28;20202;-96
2023/04/21 07:00:33;;;;;;;10.43;2.33;;;6.20;99.90;;;;;;5018267;28;20268;-96
2023/04/21 07:03:11;;;;;;;14.47;2.80;;;6.20;99.90;;;;;;5043095;28;20223;-96
2023/04/21 07:05:43;;;;;;;11.33;2.50;;;6.10;99.90;;;;;;5040232;28;20253;-96
2023/04/21 07:08:15;;;;;;;10.07;2.60;;;6.10;99.90;;;;;;5035549;28;20217;-95
2023/04/21 07:10:47;;;;;;;17.83;2.80;;;6.10;99.90;;;;;;5028509;28;20340;-96
2023/04/21 07:13:19;;;;;;;16.77;3.73;;;6.10;99.90;;;;;;5036817;28;20204;-95
2023/04/21 07:15:53;;;;;;;11.70;2.60;;;6.10;99.90;;;;;;5035894;28;20217;-95
2023/04/21 07:18:26;;;;;;;13.13;3.23;;;6.10;99.90;;;;;;5037676;28;20205;-95
2023/04/21 07:20:57;;;;;;;11.73;2.00;;;6.10;99.90;;;;;;5020174;28;20206;-95
2023/04/21 07:23:29;;;;;;;12.97;2.63;;;6.00;99.90;;;;;;5007300;28;20218;-94
2023/04/21 07:26:01;;;;;;;12.60;2.77;;;6.10;99.90;;;;;;4999098;28;20215;-94
2023/04/21 07:28:32;;;;;;;14.07;3.10;;;6.10;99.90;;;;;;5008969;28;20234;-95
2023/04/21 07:31:06;;;;;;;16.57;3.03;;;6.10;99.90;;;;;;5004092;28;20660;-95
2023/04/21 07:33:38;;;;;;;14.80;3.07;;;6.10;99.90;;;;;;5007041;28;20213;-94
2023/04/21 07:36:12;;;;;;;13.20;2.80;;;6.10;99.90;;;;;;5017781;28;20287;-95
2023/04/21 07:38:46;;;;;;;20.77;3.00;;;6.10;99.90;;;;;;5016499;28;20328;-95
2023/04/21 07:41:23;;;;;;;11.20;3.10;;;6.20;99.90;;;;;;5016015;28;20714;-96
2023/04/21 07:44:13;;;;;;;18.80;2.93;;;6.20;99.90;;;;;;5020295;28;20581;-96
2023/04/21 07:46:48;;;;;;;20.77;3.60;;;6.20;99.90;;;;;;5023674;28;20268;-96
2023/04/21 07:49:20;;;;;;;12.80;2.73;;;6.10;99.90;;;;;;5018791;28;20261;-96
2023/04/21 07:51:53;;;;;;;21.17;2.83;;;6.20;99.90;;;;;;5018556;28;20249;-95
2023/04/21 07:54:25;;;;;;;15.50;3.37;;;6.20;99.90;;;;;;5020629;28;20202;-96
2023/04/21 07:56:57;;;;;;;16.70;3.47;;;6.20;99.90;;;;;;5020500;28;20210;-95
2023/04/21 07:59:29;;;;;;;19.07;3.83;;;6.20;99.90;;;;;;5022004;28;20240;-96
2023/04/21 08:02:03;;;;;;;17.13;2.77;;;6.20;99.90;;;;;;5010040;28;20658;-96
2023/04/21 08:04:36;;;;;;;17.53;3.13;;;6.20;99.90;;;;;;5022889;28;20211;-96
2023/04/21 08:07:12;;;;;;;18.80;4.30;;;6.20;99.90;;;;;;5004848;28;20237;-96
2023/04/21 08:09:44;;;;;;;22.50;3.53;;;6.20;99.90;;;;;;5010437;28;20209;-96
2023/04/21 08:12:16;;;;;;;19.53;3.30;;;6.20;99.90;;;;;;5026288;28;20198;-96
2023/04/21 08:14:48;;;;;;;17.33;3.33;;;6.20;99.90;;;;;;5017172;28;20269;-96
2023/04/21 08:17:22;;;;;;;22.40;3.50;;;6.20;99.90;;;;;;5003972;28;20278;-95
2023/04/21 08:19:54;;;;;;;16.97;3.60;;;6.20;99.90;;;;;;4997228;28;20632;-96
2023/04/21 08:22:29;;;;;;;20.03;2.70;;;6.30;99.90;;;;;;5011205;28;20211;-96
2023/04/21 08:25:00;;;;;;;18.47;4.40;;;6.20;99.90;;;;;;5019008;28;20244;-95
2023/04/21 08:27:32;;;;;;;21.80;3.47;;;6.20;99.90;;;;;;5016392;28;20263;-96
2023/04/21 08:30:03;;;;;;;20.30;3.23;;;6.20;99.90;;;;;;5021360;28;20205;-96
2023/04/21 08:32:38;;;;;;;23.50;4.13;;;6.20;99.90;;;;;;5019160;28;20210;-96
2023/04/21 08:35:11;;;;;;;16.57;3.33;;;6.30;99.90;;;;;;5017332;28;20202;-96
2023/04/21 08:37:44;;;;;;;13.97;3.60;;;6.20;99.90;;;;;;5002525;28;20625;-94
2023/04/21 08:40:16;;;;;;;19.80;3.73;;;6.30;99.90;;;;;;5006162;28;20206;-95
2023/04/21 08:42:48;;;;;;;17.07;3.87;;;6.30;99.90;;;;;;5015910;28;20213;-95
2023/04/21 08:45:20;;;;;;;12.73;3.20;;;6.30;99.90;;;;;;4996859;28;20218;-96
2023/04/21 08:47:56;;;;;;;23.23;3.50;;;6.30;99.90;;;;;;5003787;28;20799;-96
2023/04/21 08:50:30;;;;;;;19.33;2.80;;;6.30;99.90;;;;;;4998150;28;20667;-96
2023/04/21 08:53:02;;;;;;;11.97;3.30;;;6.30;99.90;;;;;;4998277;28;20222;-95
2023/04/21 08:55:35;;;;;;;15.13;3.23;;;6.30;99.90;;;;;;5020306;28;20209;-95
2023/04/21 08:58:08;;;;;;;19.23;3.77;;;6.30;99.90;;;;;;5025981;28;20649;-95
2023/04/21 09:00:40;;;;;;;14.53;3.20;;;6.40;99.90;;;;;;5016064;28;20210;-95
2023/04/21 09:03:15;;;;;;;19.50;4.13;;;6.40;99.90;;;;;;5020304;28;20205;-96
2023/04/21 09:06:03;;;;;;;16.17;2.93;;;6.40;99.90;;;;;;5018953;28;20288;-96
2023/04/21 09:08:38;;;;;;;20.30;3.33;;;6.40;99.90;;;;;;5018484;28;20237;-96
2023/04/21 09:11:16;;;;;;;19.33;3.00;;;6.40;99.90;;;;;;5027702;28;20200;-96
2023/04/21 09:13:47;;;;;;;19.03;3.37;;;6.40;99.90;;;;;;5047079;28;20185;-96
2023/04/21 09:16:22;;;;;;;16.57;3.23;;;6.40;99.90;;;;;;5056274;28;20197;-96
2023/04/21 09:18:56;;;;;;;16.73;3.13;;;6.40;99.90;;;;;;5039234;28;20283;-96
2023/04/21 09:21:30;;;;;;;17.80;3.90;;;6.30;99.90;;;;;;5037007;28;20204;-94
2023/04/21 09:24:07;;;;;;;18.90;3.37;;;6.30;99.90;;;;;;5034458;28;20212;-95
2023/04/21 09:26:48;;;;;;;17.57;3.27;;;6.30;99.90;;;;;;5036753;28;20236;-95
2023/04/21 09:29:38;;;;;;;12.93;2.70;;;6.30;99.90;;;;;;5038024;28;20612;-96
2023/04/21 09:32:19;;;;;;;13.03;2.50;;;6.20;99.90;;;;;;5034547;28;20296;-96
2023/04/21 09:35:00;;;;;;;17.63;3.50;;;6.20;99.90;;;;;;5036538;28;20223;-96
2023/04/21 09:37:35;;;;;;;18.27;3.20;;;6.20;99.90;;;;;;5037201;28;20267;-95
2023/04/21 09:40:08;;;;;;;17.90;3.13;;;6.20;99.90;;;;;;5037070;28;20318;-96
2023/04/21 09:42:40;;;;;;;17.53;3.43;;;6.20;99.90;;;;;;5035925;28;20217;-94
2023/04/21 09:45:15;;;;;;;16.40;3.13;;;6.20;99.90;;;;;;5038948;28;20201;-96
2023/04/21 09:48:11;;;;;;;16.40;3.23;;;6.20;99.90;;;;;;5035631;28;20783;-95
2023/04/21 09:50:47;;;;;;;18.03;2.90;;;6.20;99.90;;;;;;5035618;28;20221;-95
2023/04/21 09:53:26;;;;;;;18.17;3.47;;;6.20;99.90;;;;;;5032864;28;20214;-95
2023/04/21 09:55:59;;;;;;;16.43;3.07;;;6.30;99.90;;;;;;5020477;28;20224;-96
2023/04/21 09:58:41;;;;;;;19.10;3.57;;;6.30;99.90;;;;;;5015827;28;20214;-96
2023/04/21 10:01:14;;;;;;;12.87;3.00;;;6.20;99.90;;;;;;5016240;28;20256;-95
2023/04/21 10:03:49;;;;;;;14.67;3.20;;;6.20;99.90;;;;;;5015766;28;20213;-96
2023/04/21 10:06:24;;;;;;;15.47;3.40;;;6.20;99.90;;;;;;5017048;28;20224;-95
2023/04/21 10:09:00;;;;;;;20.30;3.80;;;6.20;99.90;;;;;;5014331;28;20233;-94
2023/04/21 10:11:33;;;;;;;16.90;3.13;;;6.20;99.90;;;;;;4997279;28;20213;-96
2023/04/21 10:14:07;;;;;;;15.30;3.07;;;6.20;99.90;;;;;;5023622;28;20212;-96
2023/04/21 10:16:38;;;;;;;14.43;2.90;;;6.10;99.90;;;;;;5037850;28;20235;-96
2023/04/21 10:19:26;;;;;;;15.93;3.07;;;6.20;99.90;;;;;;5035362;28;20281;-95
2023/04/21 10:22:02;;;;;;;18.53;3.40;;;6.20;99.90;;;;;;5034941;28;20239;-95
2023/04/21 10:24:38;;;;;;;19.60;3.80;;;6.20;99.90;;;;;;5037767;28;20216;-95
2023/04/21 10:27:12;;;;;;;20.70;3.80;;;6.10;99.90;;;;;;5035215;28;20596;-94
2023/04/21 10:29:44;;;;;;;21.37;4.10;;;6.10;99.90;;;;;;5033404;28;20770;-95
2023/04/21 10:32:44;;;;;;;20.73;3.83;;;6.20;99.90;;;;;;5035517;28;20211;-94
2023/04/21 10:35:18;;;;;;;20.50;4.23;;;6.10;99.90;;;;;;5034590;28;20213;-94
2023/04/21 10:37:52;;;;;;;21.80;4.23;;;6.10;99.90;;;;;;5033635;28;20262;-95
2023/04/21 10:40:37;;;;;;;21.50;3.90;;;6.10;99.90;;;;;;5025154;28;20705;-95
2023/04/21 10:43:46;;;;;;;18.00;3.70;;;6.10;99.90;;;;;;5015208;28;20302;-95
2023/04/21 10:46:37;;;;;;;18.17;3.90;;;6.10;99.90;;;;;;5014431;28;20225;-94
2023/04/21 10:49:10;;;;;;;22.07;3.83;;;6.10;99.90;;;;;;5013778;28;20244;-94
2023/04/21 10:52:11;;;;;;;17.80;3.73;;;6.10;99.90;;;;;;5014803;28;20659;-94
2023/04/21 10:55:05;;;;;;;15.37;2.60;;;6.10;99.90;;;;;;5013409;28;20209;-93
2023/04/21 10:57:37;;;;;;;20.27;3.83;;;6.20;99.90;;;;;;5015720;28;20210;-96
2023/04/21 11:00:10;;;;;;;18.87;3.77;;;6.10;99.90;;;;;;5017315;28;20209;-96
2023/04/21 11:02:43;;;;;;;21.17;3.57;;;6.20;99.90;;;;;;5017691;28;20214;-95
2023/04/21 11:05:16;;;;;;;15.70;3.27;;;6.10;99.90;;;;;;5016096;28;20256;-96
2023/04/21 11:07:49;;;;;;;15.93;3.47;;;6.20;99.90;;;;;;5014293;28;20241;-95
2023/04/21 11:10:23;;;;;;;12.73;3.73;;;6.20;99.90;;;;;;5014543;28;20252;-95
2023/04/21 11:12:59;;;;;;;18.20;3.80;;;6.20;99.90;;;;;;5022012;28;20210;-94
2023/04/21 11:15:31;;;;;;;16.27;3.83;;;6.10;99.90;;;;;;5036985;28;20224;-95
2023/04/21 11:18:03;;;;;;;20.40;3.90;;;6.10;99.90;;;;;;5042644;28;20196;-95
2023/04/21 11:20:45;;;;;;;13.80;4.43;;;6.20;99.90;;;;;;5018750;28;20308;-96
2023/04/21 11:26:07;;;;;;;22.27;3.37;;;6.20;99.90;;;;;;5038538;28;20630;-96
2023/04/21 11:28:41;;;;;;;17.07;3.57;;;6.20;99.90;;;;;;5037013;28;20219;-94
2023/04/21 11:31:13;;;;;;;15.03;3.37;;;6.20;99.90;;;;;;5037761;28;20209;-94
2023/04/21 11:33:45;;;;;;;19.43;3.17;;;6.20;99.90;;;;;;5037322;28;20205;-95
2023/04/21 11:36:17;;;;;;;17.80;3.57;;;6.20;99.90;;;;;;5036909;28;20217;-94
2023/04/21 11:38:49;;;;;;;19.23;3.57;;;6.30;99.90;;;;;;5035638;28;20263;-96
2023/04/21 11:41:26;;;;;;;20.23;3.63;;;6.30;99.90;;;;;;5018925;28;20267;-94
2023/04/21 11:43:58;;;;;;;21.10;3.83;;;6.20;99.90;;;;;;5016776;28;20213;-93
2023/04/21 11:46:31;;;;;;;16.43;3.50;;;6.20;99.90;;;;;;5016330;28;20264;-93
2023/04/21 11:49:04;;;;;;;16.87;3.67;;;6.30;99.90;;;;;;5016286;28;20237;-93
2023/04/21 11:51:37;;;;;;;17.03;3.03;;;6.30;99.90;;;;;;5016855;28;20312;-95
2023/04/21 11:54:10;;;;;;;15.27;3.70;;;6.30;99.90;;;;;;5016679;28;20218;-94
2023/04/21 11:56:48;;;;;;;11.93;3.17;;;6.20;99.90;;;;;;5015897;28;20654;-94
2023/04/21 11:59:25;;;;;;;17.97;3.60;;;6.30;99.90;;;;;;5015574;28;20217;-94
2023/04/21 12:01:56;;;;;;;13.27;3.30;;;6.30;99.90;;;;;;5016451;28;20212;-96
2023/04/21 12:04:29;;;;;;;15.07;3.07;;;6.30;99.90;;;;;;5016944;28;20216;-95
2023/04/21 12:07:05;;;;;;;17.43;3.83;;;6.30;99.90;;;;;;5017676;28;20272;-96
2023/04/21 12:09:38;;;;;;;15.80;3.60;;;6.30;99.90;;;;;;5019044;28;20238;-95
2023/04/21 12:12:16;;;;;;;22.20;3.80;;;6.30;99.90;;;;;;5019539;28;20292;-96
2023/04/21 12:14:48;;;;;;;12.17;3.17;;;6.30;99.90;;;;;;5018347;28;20261;-96
2023/04/21 12:17:21;;;;;;;17.40;3.13;;;6.30;99.90;;;;;;5017376;28;20259;-96
2023/04/21 12:19:54;;;;;;;19.30;4.20;;;6.30;99.90;;;;;;5015649;28;20213;-96
2023/04/21 12:22:26;;;;;;;17.17;3.53;;;6.30;99.90;;;;;;5015977;28;20213;-95
2023/04/21 12:25:02;;;;;;;12.37;3.23;;;6.30;99.90;;;;;;5017343;28;20627;-96
2023/04/21 12:27:50;;;;;;;18.60;3.27;;;6.30;99.90;;;;;;5016030;28;20288;-95
2023/04/21 12:30:22;;;;;;;17.60;3.90;;;6.30;99.90;;;;;;5017984;28;20289;-96
2023/04/21 12:32:55;;;;;;;14.30;2.97;;;6.30;99.90;;;;;;5029436;28;20221;-95
2023/04/21 12:35:37;;;;;;;19.63;3.80;;;6.30;99.90;;;;;;5014365;28;20214;-94
2023/04/21 12:38:09;;;;;;;16.37;3.63;;;6.30;99.90;;;;;;5013916;28;20237;-95
2023/04/21 12:40:41;;;;;;;14.97;3.60;;;6.30;99.90;;;;;;5030762;28;20221;-96
2023/04/21 12:43:17;;;;;;;22.07;3.87;;;6.20;99.90;;;;;;5039103;28;20228;-94
2023/04/21 12:45:51;;;;;;;13.73;3.80;;;6.20;99.90;;;;;;5056964;28;20201;-94
2023/04/21 12:48:23;;;;;;;17.10;3.00;;;6.30;99.90;;;;;;5043129;28;20209;-94
2023/04/21 12:50:55;;;;;;;17.60;4.43;;;6.20;99.90;;;;;;5043265;28;20723;-93
2023/04/21 12:53:27;;;;;;;19.20;4.10;;;6.20;99.90;;;;;;5037906;28;20304;-94
2023/04/21 12:56:00;;;;;;;20.07;3.93;;;6.20;99.90;;;;;;5019400;28;20221;-93
2023/04/21 12:58:37;;;;;;;18.80;4.37;;;6.20;99.90;;;;;;5019596;28;20272;-93
2023/04/21 13:01:10;;;;;;;21.77;3.80;;;6.20;99.90;;;;;;5035878;28;20239;-93
2023/04/21 13:03:42;;;;;;;17.33;3.83;;;6.20;99.90;;;;;;5041524;28;20215;-93
2023/04/21 13:06:14;;;;;;;16.43;3.30;;;6.30;99.90;;;;;;5026547;28;20193;-93
2023/04/21 13:08:46;;;;;;;15.77;3.40;;;6.30;99.90;;;;;;5009002;28;20213;-95
2023/04/21 13:11:18;;;;;;;16.70;3.23;;;6.30;99.90;;;;;;4997955;28;20234;-96
2023/04/21 13:13:53;;;;;;;17.43;3.83;;;6.30;99.90;;;;;;4997428;28;20218;-95
2023/04/21 13:16:25;;;;;;;14.77;3.17;;;6.30;99.90;;;;;;5005418;28;20241;-96
2023/04/21 13:18:59;;;;;;;16.43;3.90;;;6.20;99.90;;;;;;5017683;28;20197;-95
2023/04/21 13:21:31;;;;;;;15.67;3.30;;;6.20;99.90;;;;;;5018068;28;20250;-94
2023/04/21 13:24:04;;;;;;;20.93;3.53;;;6.20;99.90;;;;;;4998631;28;20210;-94
2023/04/21 13:26:39;;;;;;;22.60;3.67;;;6.20;99.90;;;;;;4997927;28;20206;-95
2023/04/21 13:29:14;;;;;;;17.37;3.97;;;6.20;99.90;;;;;;4995209;28;20298;-93
2023/04/21 13:31:45;;;;;;;14.90;3.87;;;6.30;99.90;;;;;;4999487;28;20221;-93
2023/04/21 13:34:17;;;;;;;17.87;3.97;;;6.30;99.90;;;;;;5015102;28;20221;-93